Time;durP1;ratioP1;P1;durP2;ratioP2;P2;SDS_P1;SDS_P2;PMS_P1;PMS_P2;Temp;Humidity;BMP_temperature;BMP_pressure;BME280_temperature;BME280_humidity;BME280_pressure;Samples;Min_cycle;Max_cycle;Signal;HPM_P1;HPM_P2
2022/12/24 00:01:17;;;;;;;;;4.25;3.00;;;;;8.77;100.00;100184.28;4857396;29;45358;-91
2022/12/24 00:03:49;;;;;;;;;4.50;4.50;;;;;10.67;100.00;100511.31;4841005;29;45335;-91
2022/12/24 00:06:24;;;;;;;;;6.00;4.00;;;;;9.57;100.00;100331.28;4856018;29;44839;-94
2022/12/24 00:08:53;;;;;;;;;4.25;2.25;;;;;9.90;100.00;100383.41;4854427;29;45474;-93
2022/12/24 00:11:20;;;;;;;;;3.25;2.25;;;;;10.02;100.00;100390.22;4837093;29;47076;-92
2022/12/24 00:13:52;;;;;;;;;4.00;3.00;;;;;10.64;100.00;100487.59;4859793;29;45249;-92
2022/12/24 00:16:18;;;;;;;;;4.50;2.75;;;;;9.69;100.00;100347.78;4858759;29;45450;-92
2022/12/24 00:18:43;;;;;;;;;2.50;2.50;;;;;8.96;100.00;100213.78;4840190;29;45344;-93
2022/12/24 00:21:14;;;;;;;;;2.00;2.00;;;;;10.22;100.00;100447.91;4839551;29;45326;-93
2022/12/24 00:23:43;;;;;;;;;3.75;3.25;;;;;8.97;100.00;100216.41;4854063;29;44974;-93
2022/12/24 00:26:15;;;;;;;;;3.00;2.25;;;;;9.06;100.00;100260.16;4879491;29;45362;-90
2022/12/24 00:28:41;;;;;;;;;3.75;3.75;;;;;9.48;100.00;100301.59;4878421;29;44829;-91
2022/12/24 00:31:20;;;;;;;;;4.00;2.00;;;;;8.93;100.00;100219.13;4857882;29;46773;-92
2022/12/24 00:33:46;;;;;;;;;4.75;3.50;;;;;9.89;100.00;100371.16;4855470;29;44857;-92
2022/12/24 00:36:15;;;;;;;;;4.25;3.75;;;;;8.63;100.00;100168.75;4849911;29;45371;-93
2022/12/24 00:38:41;;;;;;;;;2.50;2.25;;;;;9.13;100.00;100268.84;4929816;28;44993;-91
2022/12/24 00:41:23;;;;;;;;;4.00;3.50;;;;;8.62;100.00;100178.38;4958619;28;46837;-91
2022/12/24 00:43:58;;;;;;;;;3.00;3.00;;;;;10.53;100.00;100514.25;4952905;28;45437;-92
2022/12/24 00:46:37;;;;;;;;;2.75;2.50;;;;;8.72;100.00;100213.34;4969768;28;45394;-91
2022/12/24 00:49:13;;;;;;;;;4.75;2.50;;;;;9.88;100.00;100438.03;4972755;28;45384;-90
2022/12/24 00:51:42;;;;;;;;;3.75;3.75;;;;;10.50;100.00;100527.53;4979592;28;47187;-91
2022/12/24 00:54:10;;;;;;;;;3.75;2.25;;;;;8.92;100.00;100275.38;4969484;28;45378;-90
2022/12/24 00:56:37;;;;;;;;;4.00;2.75;;;;;9.47;100.00;100348.19;4973145;28;45413;-94
2022/12/24 00:59:08;;;;;;;;;3.75;3.75;;;;;8.74;100.00;100213.34;4976592;28;44935;-91
2022/12/24 01:01:56;;;;;;;;;5.50;3.00;;;;;10.49;100.00;100538.97;4968519;28;47038;-92
2022/12/24 01:07:10;;;;;;;;;3.00;3.00;;;;;9.70;100.00;100400.56;4969310;28;45318;-93
2022/12/24 01:09:38;;;;;;;;;8.50;3.75;;;;;9.18;100.00;100343.47;4958189;28;45342;-92
2022/12/24 01:12:04;;;;;;;;;6.50;2.75;;;;;10.04;100.00;100502.00;4963159;28;45261;-94
2022/12/24 01:14:30;;;;;;;;;9.75;5.00;;;;;8.91;100.00;100285.03;4961768;28;44800;-92
2022/12/24 01:16:59;;;;;;;;;6.75;5.00;;;;;9.18;100.00;100328.50;4965596;28;44858;-92
2022/12/24 01:19:28;;;;;;;;;4.00;3.00;;;;;10.10;100.00;100481.59;4969813;28;45432;-92
2022/12/24 01:21:53;;;;;;;;;8.25;4.75;;;;;10.00;100.00;100480.03;4976932;28;47032;-93
2022/12/24 01:24:20;;;;;;;;;5.00;5.00;;;;;10.08;100.00;100475.50;4984722;28;45315;-91
2022/12/24 01:26:47;;;;;;;;;3.00;3.00;;;;;8.88;100.00;100256.09;4971928;28;45354;-93
2022/12/24 01:29:17;;;;;;;;;3.00;2.00;;;;;9.63;100.00;100406.84;4957221;28;45389;-93
2022/12/24 01:31:59;;;;;;;;;4.50;3.00;;;;;10.16;100.00;100496.47;4990361;28;46526;-94
2022/12/24 01:34:25;;;;;;;;;7.00;4.00;;;;;9.53;100.00;100406.13;4971216;28;45338;-93
2022/12/24 01:36:53;;;;;;;;;4.00;3.00;;;;;10.38;100.00;100570.91;4968836;28;45292;-92
2022/12/24 01:39:21;;;;;;;;;3.75;3.00;;;;;9.06;100.00;100337.53;4953756;28;45280;-93
2022/12/24 01:44:33;;;;;;;;;4.75;4.75;;;;;10.10;100.00;100492.16;4991554;28;45460;-93
2022/12/24 01:47:12;;;;;;;;;3.75;3.50;;;;;10.36;100.00;100546.31;4974341;28;45468;-93
2022/12/24 01:49:46;;;;;;;;;7.00;6.75;;;;;9.06;100.00;100337.53;4970027;28;45197;-93
2022/12/24 01:52:19;;;;;;;;;4.75;4.00;;;;;9.18;100.00;100359.28;4938705;28;47206;-91
2022/12/24 01:54:59;;;;;;;;;6.00;5.00;;;;;9.94;100.00;100480.16;4986552;28;45444;-93
2022/12/24 01:57:41;;;;;;;;;7.75;4.75;;;;;10.35;100.00;100576.25;4969635;28;45271;-93
2022/12/24 02:00:11;;;;;;;;;8.00;4.00;;;;;9.18;100.00;100373.31;4975870;28;44782;-92
2022/12/24 02:02:42;;;;;;;;;4.50;4.00;;;;;9.58;100.00;100443.88;4977667;28;46829;-92
2022/12/24 02:05:25;;;;;;;;;2.50;2.50;;;;;9.93;100.00;100495.13;4991815;28;45227;-92
2022/12/24 02:07:57;;;;;;;;;2.00;2.00;;;;;8.64;100.00;100286.38;4992220;28;45320;-93
2022/12/24 02:10:27;;;;;;;;;4.75;4.00;;;;;8.49;100.00;100269.09;4968213;28;45336;-93
2022/12/24 02:12:56;;;;;;;;;6.50;2.25;;;;;10.11;100.00;100540.56;4968062;28;45303;-93
2022/12/24 02:16:08;;;;;;;;;5.00;3.00;;;;;9.65;100.00;100470.13;4981895;28;45424;-93
2022/12/24 02:19:32;;;;;;;;;;;;;;;;;;;;;
2022/12/24 02:25:57;;;;;;;;;5.75;4.00;;;;;9.18;100.00;100402.34;4898526;29;45762;-93
2022/12/24 02:28:55;;;;;;;;;5.50;2.50;;;;;10.28;100.00;100575.47;4892754;29;45424;-92
2022/12/24 02:31:29;;;;;;;;;6.00;5.00;;;;;10.29;100.00;100578.97;4896057;29;44743;-94
2022/12/24 02:34:21;;;;;;;;;4.50;4.50;;;;;9.57;100.00;100475.56;4903052;29;45032;-92
2022/12/24 02:37:20;;;;;;;;;6.50;3.00;;;;;9.54;100.00;100465.91;4872169;29;45501;-93
2022/12/24 02:40:12;;;;;;;;;3.75;3.00;;;;;9.85;100.00;100512.88;4876725;29;44677;-92
2022/12/24 02:43:01;;;;;;;;;7.00;3.00;;;;;8.87;100.00;100336.09;4886443;29;45431;-93
2022/12/24 02:45:38;;;;;;;;;4.25;3.00;;;;;8.40;100.00;100262.16;4888247;29;45602;-94
2022/12/24 02:48:08;;;;;;;;;2.75;2.75;;;;;9.17;100.00;100381.25;4890917;29;45342;-92
2022/12/24 02:50:57;;;;;;;;;2.50;2.00;;;;;10.22;100.00;100580.88;4895683;29;45366;-92
2022/12/24 02:53:23;;;;;;;;;3.25;3.00;;;;;8.93;100.00;100372.00;4891453;29;45565;-92
2022/12/24 02:56:11;;;;;;;;;4.00;4.00;;;;;9.15;100.00;100398.88;4892209;29;45291;-93
2022/12/24 02:59:17;;;;;;;;;5.50;4.00;;;;;8.80;100.00;100334.44;4927203;28;47021;-93
2022/12/24 03:02:01;;;;;;;;;4.75;3.00;;;;;10.02;100.00;100536.34;4969187;28;45397;-93
2022/12/24 03:05:13;;;;;;;;;9.00;5.00;;;;;10.23;100.00;100563.25;4967353;28;45317;-93
2022/12/24 03:08:01;;;;;;;;;4.25;3.25;;;;;10.22;100.00;100551.81;4969610;28;44923;-93
2022/12/24 03:11:01;;;;;;;;;6.25;5.50;;;;;9.56;100.00;100442.13;4966505;28;47327;-93
2022/12/24 03:13:28;;;;;;;;;10.00;7.50;;;;;8.68;100.00;100304.78;4967999;28;45323;-93
2022/12/24 03:16:01;;;;;;;;;2.75;1.75;;;;;10.24;100.00;100570.28;4980552;28;45294;-95
2022/12/24 03:18:29;;;;;;;;;4.50;3.50;;;;;9.01;100.00;100349.91;4951106;28;45285;-93
2022/12/24 03:24:18;;;;;;;;;3.25;3.25;;;;;9.52;100.00;100427.25;4971878;28;45278;-94
2022/12/24 03:37:06;;;;;;;;;8.25;4.50;;;;;8.67;100.00;100284.59;4888212;29;45423;-92
2022/12/24 03:42:56;;;;;;;;;7.25;5.00;;;;;9.42;100.00;100411.59;4892776;29;45360;-93
2022/12/24 03:49:40;;;;;;;;;6.75;5.25;;;;;10.25;100.00;100564.09;4899249;29;44712;-94
2022/12/24 03:52:14;;;;;;;;;3.00;2.75;;;;;8.43;100.00;100263.88;4900254;29;45244;-92
2022/12/24 03:54:45;;;;;;;;;6.00;6.00;;;;;8.88;100.00;100328.16;4897941;29;45327;-93
2022/12/24 03:57:14;;;;;;;;;5.00;4.00;;;;;9.84;100.00;100504.97;4871886;29;46754;-93
2022/12/24 03:59:40;;;;;;;;;5.75;3.50;;;;;8.57;100.00;100274.22;4890284;29;45278;-93
2022/12/24 04:02:12;;;;;;;;;4.75;2.00;;;;;9.17;100.00;100397.97;4885261;29;45491;-93
2022/12/24 04:04:38;;;;;;;;;6.00;3.50;;;;;8.65;100.00;100315.34;4892638;28;45328;-94
2022/12/24 04:07:07;;;;;;;;;5.00;4.25;;;;;9.14;100.00;100403.31;4979359;28;47030;-93
2022/12/24 04:09:35;;;;;;;;;3.50;3.00;;;;;8.78;100.00;100330.97;4982045;28;45409;-93
2022/12/24 04:12:12;;;;;;;;;3.25;2.25;;;;;8.67;100.00;100324.09;4972163;28;45259;-94
2022/12/24 04:14:46;;;;;;;;;5.75;4.50;;;;;9.12;100.00;100409.50;4985734;28;45303;-93
2022/12/24 04:17:15;;;;;;;;;3.25;3.00;;;;;9.13;100.00;100401.56;4975858;28;47049;-92
2022/12/24 04:19:41;;;;;;;;;7.25;4.00;;;;;9.58;100.00;100504.56;4982762;28;44761;-95
2022/12/24 04:22:07;;;;;;;;;7.00;4.50;;;;;9.39;100.00;100459.13;4977279;28;44774;-94
2022/12/24 04:24:39;;;;;;;;;5.25;4.50;;;;;9.33;100.00;100446.03;4966870;28;45386;-94
2022/12/24 04:27:07;;;;;;;;;3.00;3.00;;;;;9.22;100.00;100445.38;4965211;28;45612;-95
2022/12/24 04:29:36;;;;;;;;;4.75;4.75;;;;;8.96;100.00;100399.19;4972217;28;45313;-95
2022/12/24 04:42:25;;;;;;;;;9.75;3.25;;;;;9.67;100.00;100519.38;4993344;28;44771;-93
2022/12/24 04:45:21;;;;;;;;;10.75;4.75;;;;;9.13;100.00;100433.19;4990932;28;45416;-94
2022/12/24 04:47:50;;;;;;;;;9.50;4.00;;;;;8.37;100.00;100314.88;4979164;28;44902;-94
2022/12/24 04:50:18;;;;;;;;;4.25;3.25;;;;;8.47;100.00;100329.69;4967440;28;45566;-93
2022/12/24 04:52:44;;;;;;;;;4.25;3.75;;;;;8.99;100.00;100404.44;4952602;28;45389;-93
2022/12/24 04:55:10;;;;;;;;;4.75;3.00;;;;;9.84;100.00;100561.31;4969711;28;44801;-93
2022/12/24 04:57:44;;;;;;;;;3.50;3.50;;;;;8.41;100.00;100315.69;4967177;28;45327;-93
2022/12/24 05:00:13;;;;;;;;;7.50;5.50;;;;;9.97;100.00;100575.16;4970177;28;47028;-93
2022/12/24 05:02:42;;;;;;;;;4.25;2.75;;;;;8.23;100.00;100272.06;4977042;28;45393;-92
2022/12/24 05:05:16;;;;;;;;;3.75;3.00;;;;;10.27;100.00;100637.13;4971577;28;45505;-93
2022/12/24 05:07:42;;;;;;;;;1.00;1.00;;;;;8.80;100.00;100380.09;4991866;28;44884;-93
2022/12/24 05:10:09;;;;;;;;;4.75;3.75;;;;;9.12;100.00;100446.41;4970543;28;47140;-95
2022/12/24 05:12:35;;;;;;;;;6.25;4.00;;;;;10.00;100.00;100598.00;4977418;28;45295;-92
2022/12/24 05:15:03;;;;;;;;;4.25;4.25;;;;;9.35;100.00;100470.66;4963679;28;45227;-93
2022/12/24 05:17:28;;;;;;;;;4.50;4.50;;;;;9.13;100.00;100440.25;4981086;28;44812;-93
2022/12/24 05:19:54;;;;;;;;;4.75;4.00;;;;;9.27;100.00;100461.97;4972538;28;47643;-92
2022/12/24 05:27:55;;;;;;;;;5.25;3.75;;;;;8.93;100.00;100403.63;4991315;28;45279;-92
2022/12/24 05:30:21;;;;;;;;;5.50;4.25;;;;;10.26;100.00;100655.66;4990640;28;45305;-94
2022/12/24 05:32:47;;;;;;;;;10.25;3.75;;;;;9.27;100.00;100454.06;4995597;28;45236;-93
2022/12/24 05:35:17;;;;;;;;;5.25;3.50;;;;;9.29;100.00;100440.84;4997789;28;45243;-92
2022/12/24 05:37:43;;;;;;;;;6.25;3.00;;;;;9.35;100.00;100459.22;4974652;28;45638;-92
2022/12/24 05:40:17;;;;;;;;;4.50;4.25;;;;;9.86;100.00;100540.16;4974836;28;45248;-93
2022/12/24 05:42:44;;;;;;;;;9.25;6.25;;;;;8.97;100.00;100379.84;4975517;28;45370;-93
2022/12/24 05:45:15;;;;;;;;;2.75;2.50;;;;;10.12;100.00;100584.56;4979004;28;44772;-93
2022/12/24 05:47:41;;;;;;;;;4.25;2.75;;;;;9.89;100.00;100553.31;4962155;28;45327;-93
2022/12/24 05:50:08;;;;;;;;;5.75;5.50;;;;;10.27;100.00;100626.56;4990054;28;45464;-92
2022/12/24 05:52:34;;;;;;;;;8.00;5.25;;;;;8.51;100.00;100310.28;4971964;28;45408;-92
2022/12/24 05:54:59;;;;;;;;;8.25;5.25;;;;;8.69;100.00;100340.75;4968100;28;45389;-93
2022/12/24 05:57:25;;;;;;;;;7.00;4.00;;;;;10.29;100.00;100594.81;4968939;28;45428;-93
2022/12/24 05:59:51;;;;;;;;;7.75;6.75;;;;;10.31;100.00;100590.41;4987490;28;45434;-93
2022/12/24 06:02:17;;;;;;;;;4.00;3.00;;;;;9.71;100.00;100515.75;4970329;28;44967;-92
2022/12/24 06:04:42;;;;;;;;;3.25;3.00;;;;;9.92;100.00;100545.34;4971716;28;45412;-92
2022/12/24 06:07:14;;;;;;;;;4.00;3.50;;;;;9.39;100.00;100430.09;4974305;28;44917;-94
2022/12/24 06:09:45;;;;;;;;;7.50;7.00;;;;;8.34;100.00;100257.00;4977474;28;45543;-95
2022/12/24 06:12:21;;;;;;;;;;;;;;;;;;;;;
2022/12/24 06:14:55;;;;;;;;;6.25;3.00;;;;;8.57;100.00;100297.94;4993810;28;67135;-93
2022/12/24 06:17:24;;;;;;;;;8.75;4.00;;;;;9.41;100.00;100452.09;4982575;28;44906;-93
2022/12/24 06:19:50;;;;;;;;;7.25;5.00;;;;;8.61;100.00;100328.59;4995631;28;45280;-93
2022/12/24 06:22:21;;;;;;;;;6.25;4.00;;;;;9.52;100.00;100473.00;4989907;28;45212;-93
2022/12/24 06:24:50;;;;;;;;;5.50;3.25;;;;;8.96;100.00;100393.03;4984524;28;45386;-94
2022/12/24 06:27:19;;;;;;;;;7.25;6.00;;;;;9.69;100.00;100507.00;4966024;28;45335;-92
2022/12/24 06:29:47;;;;;;;;;4.25;3.00;;;;;8.48;100.00;100306.84;4982970;28;46381;-93
2022/12/24 06:35:41;;;;;;;;;4.00;4.00;;;;;9.22;100.00;100416.34;4992174;28;44748;-93
2022/12/24 06:38:09;;;;;;;;;3.75;3.00;;;;;9.89;100.00;100550.66;4957981;28;45271;-93
2022/12/24 06:43:56;;;;;;;;;6.00;4.00;;;;;10.26;100.00;100609.00;4997854;28;44699;-93
2022/12/24 06:46:25;;;;;;;;;2.50;2.50;;;;;9.71;100.00;100505.19;4976270;28;45353;-93
2022/12/24 06:48:53;;;;;;;;;5.25;4.00;;;;;9.27;100.00;100442.66;4969112;28;45516;-95
2022/12/24 06:51:19;;;;;;;;;4.50;4.50;;;;;9.83;100.00;100537.56;4968609;28;46686;-94
2022/12/24 06:53:46;;;;;;;;;2.25;1.50;;;;;8.75;100.00;100341.56;4964042;28;46180;-95
2022/12/24 06:56:13;;;;;;;;;4.50;2.00;;;;;9.04;100.00;100404.34;4965440;28;45298;-92
2022/12/24 06:58:46;;;;;;;;;2.00;2.00;;;;;9.87;100.00;100541.88;4969538;28;45228;-92
2022/12/24 07:01:28;;;;;;;;;2.50;2.50;;;;;9.88;100.00;100565.63;4967395;28;47280;-93
2022/12/24 07:03:53;;;;;;;;;5.00;2.50;;;;;9.06;100.00;100416.63;4945943;28;44813;-91
2022/12/24 07:06:24;;;;;;;;;3.00;3.00;;;;;8.12;100.00;100253.81;4972281;28;45463;-92
2022/12/24 07:08:50;;;;;;;;;2.25;0.75;;;;;9.75;100.00;100532.44;4960731;28;45232;-92
2022/12/24 07:11:16;;;;;;;;;4.50;1.75;;;;;8.46;100.00;100322.69;4967249;28;46024;-91
2022/12/24 07:13:49;;;;;;;;;2.25;2.00;;;;;10.16;100.00;100602.13;4971062;28;45682;-92
2022/12/24 07:16:15;;;;;;;;;1.75;1.00;;;;;9.75;100.00;100554.41;4970516;28;45306;-91
2022/12/24 07:18:41;;;;;;;;;2.50;2.00;;;;;9.64;100.00;100529.97;4965841;28;45453;-92
2022/12/24 07:21:09;;;;;;;;;4.25;3.00;;;;;9.77;100.00;100560.53;4964107;28;46539;-90
2022/12/24 07:23:41;;;;;;;;;0.00;0.00;;;;;10.10;100.00;100626.84;4977719;28;45831;-91
2022/12/24 07:26:09;;;;;;;;;4.50;1.50;;;;;9.47;100.00;100521.47;4970967;28;44919;-91
2022/12/24 07:28:40;;;;;;;;;3.00;0.25;;;;;8.32;100.00;100333.38;4970712;28;45427;-90
2022/12/24 07:31:12;;;;;;;;;2.75;2.25;;;;;9.01;100.00;100444.81;4952280;28;47836;-92
2022/12/24 07:33:38;;;;;;;;;3.00;1.00;;;;;9.31;100.00;100484.78;4950588;28;45729;-92
2022/12/24 07:39:27;;;;;;;;;2.50;0.75;;;;;9.64;100.00;100568.66;4942677;28;45320;-90
2022/12/24 07:41:53;;;;;;;;;0.25;0.25;;;;;8.53;100.00;100374.38;4932875;28;47608;-92
2022/12/24 07:44:36;;;;;;;;;2.00;1.00;;;;;9.12;100.00;100475.41;4935723;28;46296;-92
2022/12/24 07:47:02;;;;;;;;;1.00;1.00;;;;;8.95;100.00;100466.00;4949961;28;45364;-92
2022/12/24 07:49:39;;;;;;;;;2.00;1.00;;;;;8.22;100.00;100326.50;4949987;28;45472;-92
2022/12/24 07:52:07;;;;;;;;;3.25;1.25;;;;;8.89;100.00;100445.00;4957626;28;47170;-93
2022/12/24 07:54:36;;;;;;;;;1.00;1.00;;;;;9.87;100.00;100610.53;4933590;28;45603;-92
2022/12/24 07:57:18;;;;;;;;;2.75;2.50;;;;;8.96;100.00;100457.19;4949890;28;45411;-93
2022/12/24 08:00:00;;;;;;;;;1.00;1.00;;;;;9.52;100.00;100546.88;4916292;28;45466;-93
2022/12/24 08:42:00;;;;;;;;;2.00;2.00;;;;;9.26;100.00;100510.34;4977317;28;45608;-92
2022/12/24 08:44:26;;;;;;;;;4.00;2.50;;;;;9.69;100.00;100582.69;4986348;28;45576;-93
2022/12/24 08:46:51;;;;;;;;;3.50;1.00;;;;;8.56;100.00;100405.06;4967678;28;47454;-93
2022/12/24 08:49:24;;;;;;;;;1.75;1.25;;;;;9.68;100.00;100588.84;4977593;28;45989;-90
2022/12/24 08:51:57;;;;;;;;;1.00;1.00;;;;;9.94;100.00;100634.19;4974014;28;45280;-95
2022/12/24 08:54:24;;;;;;;;;1.00;0.00;;;;;10.20;100.00;100679.53;4972734;28;45691;-91
2022/12/24 08:56:50;;;;;;;;;1.25;1.00;;;;;8.73;100.00;100422.41;4962192;28;47074;-92
2022/12/24 08:59:16;;;;;;;;;3.25;1.75;;;;;10.39;100.00;100720.63;4950238;28;45292;-92
2022/12/24 09:01:45;;;;;;;;;1.00;1.00;;;;;8.83;100.00;100460.91;4957094;28;45235;-92
2022/12/24 09:04:10;;;;;;;;;1.00;1.00;;;;;10.43;100.00;100722.31;4942490;28;45490;-92
2022/12/24 09:06:36;;;;;;;;;2.00;2.00;;;;;9.45;100.00;100563.69;4942646;28;47077;-92
2022/12/24 09:09:03;;;;;;;;;1.75;1.75;;;;;9.53;100.00;100569.69;4958847;28;45417;-88
2022/12/24 09:11:28;;;;;;;;;1.75;1.75;;;;;10.43;100.00;100710.88;4962447;28;45500;-90
2022/12/24 09:13:55;;;;;;;;;0.75;0.75;;;;;10.51;100.00;100751.25;4924015;28;45462;-90
2022/12/24 09:16:21;;;;;;;;;2.25;0.75;;;;;9.43;100.00;100553.16;4939454;28;47758;-90
2022/12/24 09:18:46;;;;;;;;;1.50;1.25;;;;;9.63;100.00;100594.19;4946175;28;45902;-90
2022/12/24 09:21:16;;;;;;;;;2.50;2.00;;;;;8.81;100.00;100453.03;4947326;28;45308;-89
2022/12/24 09:23:44;;;;;;;;;2.00;2.00;;;;;10.59;100.00;100745.84;4948244;28;45351;-90
2022/12/24 09:26:25;;;;;;;;;2.50;2.00;;;;;10.62;100.00;100772.22;4949894;28;48144;-89
2022/12/24 09:28:51;;;;;;;;;1.50;0.50;;;;;10.63;100.00;100772.19;4977017;28;45503;-89
2022/12/24 09:31:18;;;;;;;;;1.00;1.00;;;;;9.58;100.00;100574.91;4959401;28;45391;-90
2022/12/24 09:33:45;;;;;;;;;1.50;1.00;;;;;9.91;100.00;100638.63;4951558;28;45489;-89
2022/12/24 09:36:11;;;;;;;;;1.00;1.00;;;;;9.18;100.00;100517.50;4962829;28;45598;-90
2022/12/24 09:38:38;;;;;;;;;3.75;2.00;;;;;9.60;100.00;100595.13;4962516;28;45438;-90
2022/12/24 09:41:23;;;;;;;;;1.75;1.75;;;;;8.87;100.00;100462.59;4932371;28;45557;-89
2022/12/24 09:44:00;;;;;;;;;2.00;2.00;;;;;9.10;100.00;100511.50;4935154;28;45529;-89
2022/12/24 09:46:34;;;;;;;;;1.50;1.50;;;;;9.41;100.00;100554.06;4920893;28;46741;-89
2022/12/24 09:49:19;;;;;;;;;1.00;1.00;;;;;9.67;100.00;100588.00;4919761;28;45775;-88
2022/12/24 09:51:51;;;;;;;;;3.00;1.00;;;;;10.73;100.00;100750.88;4913431;28;45554;-88
2022/12/24 09:54:23;;;;;;;;;6.75;3.75;;;;;9.79;100.00;100602.72;4930065;28;45438;-88
2022/12/24 09:56:49;;;;;;;;;3.75;2.75;;;;;10.80;100.00;100760.47;4927697;28;45484;-89
2022/12/24 09:59:19;;;;;;;;;0.50;0.00;;;;;10.21;100.00;100652.22;4930441;28;45514;-88
2022/12/24 10:01:45;;;;;;;;;2.75;2.00;;;;;10.73;100.00;100746.47;4918956;28;45574;-89
2022/12/24 10:04:20;;;;;;;;;3.00;1.00;;;;;10.13;100.00;100612.75;4926024;28;45641;-88
2022/12/24 10:07:07;;;;;;;;;2.00;1.00;;;;;10.95;100.00;100740.81;4935060;28;46257;-88
2022/12/24 10:10:03;;;;;;;;;2.25;0.00;;;;;9.95;100.00;100569.03;4913192;28;45495;-90
2022/12/24 10:12:38;;;;;;;;;1.50;1.00;;;;;11.03;100.00;100754.72;4918328;28;45577;-89
2022/12/24 10:15:27;;;;;;;;;1.75;1.00;;;;;11.09;100.00;100759.91;4919746;28;45575;-91
2022/12/24 10:18:05;;;;;;;;;0.00;0.00;;;;;11.09;100.00;100754.63;4936135;28;45202;-88
2022/12/24 10:20:46;;;;;;;;;2.00;2.00;;;;;9.98;100.00;100566.34;4926583;28;45759;-88
2022/12/24 10:23:44;;;;;;;;;2.25;2.00;;;;;11.15;100.00;100754.50;4915233;28;45534;-89
2022/12/24 10:26:26;;;;;;;;;1.75;1.75;;;;;11.18;100.00;100754.44;4915083;28;45652;-90
2022/12/24 10:29:12;;;;;;;;;2.00;2.00;;;;;11.01;100.00;100725.66;4921671;28;46935;-90
2022/12/24 10:31:52;;;;;;;;;1.75;1.75;;;;;11.13;100.00;100743.09;4943063;28;45423;-89
2022/12/24 10:34:26;;;;;;;;;2.00;2.00;;;;;11.27;100.00;100755.16;4936461;28;45423;-89
2022/12/24 10:36:52;;;;;;;;;3.00;2.00;;;;;10.92;100.00;100696.75;4937525;28;45402;-88
2022/12/24 10:39:21;;;;;;;;;2.25;2.00;;;;;10.10;100.00;100558.19;4910039;28;47134;-90
2022/12/24 10:41:50;;;;;;;;;4.00;1.00;;;;;11.32;100.00;100740.94;4947781;28;45337;-91
2022/12/24 10:44:23;;;;;;;;;3.00;1.00;;;;;10.94;100.00;100676.44;4930656;28;45509;-90
2022/12/24 10:46:52;;;;;;;;;1.00;1.00;;;;;11.01;100.00;100687.78;4942345;28;45511;-93
2022/12/24 10:49:30;;;;;;;;;2.00;1.00;;;;;10.43;100.00;100590.22;4934499;28;47088;-91
2022/12/24 10:52:02;;;;;;;;;3.00;1.25;;;;;9.75;100.00;100466.44;4950364;28;45505;-89
2022/12/24 10:54:33;;;;;;;;;14.50;13.25;;;;;10.38;100.00;100555.06;4942052;28;44997;-90
2022/12/24 10:57:01;;;;;;;;;6.75;2.50;;;;;10.59;100.00;100584.63;4954899;28;45276;-90
2022/12/24 10:59:29;;;;;;;;;1.00;1.00;;;;;11.56;100.00;100741.31;4947145;28;47217;-91
2022/12/24 11:01:58;;;;;;;;;1.00;1.00;;;;;11.58;100.00;100736.00;4952618;28;45754;-91
2022/12/24 11:04:27;;;;;;;;;1.00;1.00;;;;;10.54;100.00;100560.06;4965831;28;45500;-90
2022/12/24 11:06:53;;;;;;;;;1.00;1.00;;;;;9.94;100.00;100448.47;4942633;28;45357;-91
2022/12/24 11:09:26;;;;;;;;;2.50;2.50;;;;;11.59;100.00;100727.16;4946563;28;47334;-90
2022/12/24 11:11:55;;;;;;;;;3.50;1.00;;;;;11.61;100.00;100736.78;4954434;28;45524;-91
2022/12/24 11:14:21;;;;;;;;;1.00;0.00;;;;;10.74;100.00;100584.31;4957069;28;45561;-90
2022/12/24 11:17:01;;;;;;;;;1.00;1.00;;;;;10.05;100.00;100467.63;4943453;28;45508;-90
2022/12/24 11:19:34;;;;;;;;;4.00;2.00;;;;;11.65;100.00;100727.03;4949102;28;45413;-88
2022/12/24 11:22:16;;;;;;;;;3.25;3.25;;;;;11.54;100.00;100709.59;4938837;28;45588;-87
2022/12/24 11:24:43;;;;;;;;;2.75;1.75;;;;;10.10;100.00;100481.59;4956848;28;45653;-90
2022/12/24 11:27:28;;;;;;;;;2.00;2.00;;;;;10.22;100.00;100466.41;4956468;28;45563;-87
2022/12/24 11:30:10;;;;;;;;;1.75;1.50;;;;;11.77;100.00;100737.34;4936165;28;48654;-89
2022/12/24 11:32:36;;;;;;;;;2.00;2.00;;;;;10.83;100.00;100570.03;4953509;28;45409;-88
2022/12/24 11:35:14;;;;;;;;;2.50;1.00;;;;;11.17;100.00;100646.91;4942974;28;45262;-89
2022/12/24 11:37:42;;;;;;;;;2.00;2.00;;;;;11.05;100.00;100599.50;4948970;28;45437;-89
2022/12/24 11:40:20;;;;;;;;;1.00;1.00;;;;;11.27;100.00;100631.66;4953369;28;45581;-88
2022/12/24 11:42:46;;;;;;;;;5.25;2.00;;;;;11.22;100.00;100619.44;4928681;28;45416;-89
2022/12/24 11:45:32;;;;;;;;;1.00;1.00;;;;;11.34;100.00;100645.63;4924992;28;45420;-89
2022/12/24 11:47:59;;;;;;;;;2.50;2.50;;;;;10.73;100.00;100524.38;4925126;28;45293;-89
2022/12/24 11:50:24;;;;;;;;;4.00;2.50;;;;;11.89;100.00;100720.31;4931733;28;47686;-88
2022/12/24 11:53:14;;;;;;;;;2.00;1.00;;;;;11.88;100.00;100730.00;4930162;28;45305;-88
2022/12/24 11:55:55;;;;;;;;;4.00;1.50;;;;;11.10;100.00;100596.75;4930183;28;45649;-89
2022/12/24 11:58:50;;;;;;;;;2.00;2.00;;;;;11.60;100.00;100673.28;4937788;28;45380;-87
2022/12/24 12:01:36;;;;;;;;;2.25;1.00;;;;;11.19;100.00;100612.47;4944144;28;46480;-88
2022/12/24 12:04:26;;;;;;;;;1.75;1.75;;;;;10.91;100.00;100575.16;4962886;28;45397;-86
2022/12/24 12:06:57;;;;;;;;;1.00;1.00;;;;;11.27;100.00;100626.38;4957725;28;45176;-87
2022/12/24 12:09:26;;;;;;;;;2.50;2.00;;;;;11.52;100.00;100668.16;4948070;28;45067;-89
2022/12/24 12:12:00;;;;;;;;;3.00;2.50;;;;;11.65;100.00;100676.72;4943750;28;46696;-88
2022/12/24 12:14:49;;;;;;;;;2.00;2.00;;;;;11.56;100.00;100665.41;4954371;28;45441;-87
2022/12/24 12:17:38;;;;;;;;;2.75;1.00;;;;;11.84;100.00;100699.22;4930550;28;45470;-86
2022/12/24 12:20:16;;;;;;;;;3.00;3.00;;;;;11.86;100.00;100693.91;4950368;28;45429;-88
2022/12/24 12:22:55;;;;;;;;;2.75;1.00;;;;;11.51;100.00;100634.69;4939982;28;47206;-88
2022/12/24 12:25:26;;;;;;;;;1.00;1.00;;;;;11.90;100.00;100693.78;4943592;28;45537;-88
2022/12/24 12:27:55;;;;;;;;;2.00;2.00;;;;;11.23;100.00;100581.50;4956977;28;45320;-88
2022/12/24 12:30:23;;;;;;;;;2.00;1.00;;;;;11.53;100.00;100639.03;4944358;28;45645;-91
2022/12/24 12:33:19;;;;;;;;;2.50;1.50;;;;;11.89;100.00;100694.69;4928354;28;47073;-91
2022/12/24 12:35:47;;;;;;;;;2.00;2.00;;;;;11.25;100.00;100588.50;4958770;28;45718;-91
2022/12/24 12:38:20;;;;;;;;;2.50;2.50;;;;;11.07;100.00;100580.97;4946248;28;45552;-90
2022/12/24 12:41:11;;;;;;;;;4.25;2.00;;;;;11.85;100.00;100703.59;4937895;28;45439;-89
2022/12/24 12:44:07;;;;;;;;;2.75;2.75;;;;;11.84;100.00;100704.53;4933680;28;48246;-93
2022/12/24 12:47:13;;;;;;;;;1.00;1.00;;;;;11.54;100.00;100667.25;4935062;28;45504;-90
2022/12/24 12:50:23;;;;;;;;;2.00;2.00;;;;;11.08;100.00;100577.44;4931553;28;45431;-91
2022/12/24 12:53:33;;;;;;;;;2.75;1.75;;;;;10.76;100.00;100545.47;4951021;28;45281;-93
2022/12/24 12:56:27;;;;;;;;;1.50;1.50;;;;;11.80;100.00;100710.78;4954150;28;47072;-90
2022/12/24 12:59:27;;;;;;;;;4.50;3.00;;;;;11.80;100.00;100702.84;4961893;28;45287;-91
2022/12/24 13:02:15;;;;;;;;;1.50;1.50;;;;;11.79;100.00;100703.75;4940921;28;45253;-91
2022/12/24 13:04:49;;;;;;;;;1.75;1.75;;;;;11.80;100.00;100700.19;4934867;28;44919;-91
2022/12/24 13:07:43;;;;;;;;;2.50;1.00;;;;;11.78;100.00;100706.44;4969349;28;47115;-89
2022/12/24 13:10:14;;;;;;;;;2.00;2.00;;;;;11.76;100.00;100701.16;4947662;28;45319;-91
2022/12/24 13:12:52;;;;;;;;;3.00;3.00;;;;;11.76;100.00;100702.94;4947974;28;45373;-91
2022/12/24 13:15:23;;;;;;;;;3.50;3.00;;;;;11.37;100.00;100648.22;4937661;28;45568;-91
2022/12/24 13:17:55;;;;;;;;;3.00;2.75;;;;;11.75;100.00;100712.66;4943952;28;46955;-92
2022/12/24 13:20:31;;;;;;;;;2.75;2.00;;;;;10.35;100.00;100480.28;4945157;28;45558;-92
2022/12/24 13:22:57;;;;;;;;;3.00;2.00;;;;;11.37;100.00;100642.91;4951963;28;45398;-90
2022/12/24 13:25:43;;;;;;;;;5.00;3.75;;;;;11.10;100.00;100592.38;4954438;28;45457;-91
2022/12/24 13:28:21;;;;;;;;;2.75;1.75;;;;;11.35;100.00;100634.16;4949754;28;47060;-91
2022/12/24 13:31:21;;;;;;;;;6.75;4.00;;;;;9.80;100.00;100372.19;4951965;28;45293;-91